Flight Track Log - Related Links

Times and Time Zones

All times are in EDT time to prevent confusion due to time zone crossing. See the N825ST flight status page for this flight to view local times or setup timezone preferences in your user account.

Time Position Orientation Groundspeed Altitude Reporting Facility
EDT Latitude Longitude Course Direction KTS MPH feet Rate Location/Type
Wed 08:15:24 PM 46.9300 -96.7656 126° Southeast 170 196 3,900  Level Minneapolis Center
Wed 08:16:38 PM 46.8944 -96.7058 131° Southeast 186 214 5,800 1,853 Climbing Minneapolis Center
Wed 08:17:40 PM 46.8489 -96.6314 132° Southeast 201 231 8,100 2,177 Climbing Minneapolis Center
Wed 08:18:42 PM 46.8108 -96.5694 132° Southeast 198 228 10,300 2,032 Climbing Minneapolis Center
Wed 08:19:44 PM 46.7814 -96.5075 125° Southeast 175 201 12,300 1,645 Climbing Minneapolis Center
Wed 08:20:00 PM 46.7284 -96.4294 126° Southeast  Level Estimated
Wed 08:20:46 PM 46.7619 -96.4542 118° Southeast 182 209 13,700  Level Minneapolis Center
Wed 08:21:48 PM 46.7300 -96.3758 121° Southeast 186 214 15,700 1,790 Climbing Minneapolis Center
Wed 08:22:50 PM 46.7028 -96.3086 121° Southeast 185 213 17,400 1,500 Climbing Minneapolis Center
Wed 08:23:52 PM 46.6781 -96.2481 121° Southeast 183 211 18,800 1,306 Climbing Minneapolis Center
Wed 08:24:54 PM 46.6506 -96.1842 122° Southeast 184 212 20,100 1,065 Climbing Minneapolis Center
Wed 08:25:56 PM 46.6214 -96.1114 120° Southeast 200 230 21,000 435 Climbing Minneapolis Center
Wed 08:26:58 PM 46.5786 -96.0092 121° Southeast 241 277 21,000  Level Minneapolis Center
Wed 08:28:00 PM 46.5444 -95.9200 119° Southeast 253 291 21,000  Level Minneapolis Center
Wed 08:29:02 PM 46.5075 -95.8336 122° Southeast 252 290 21,000  Level Minneapolis Center
Wed 08:30:04 PM 46.4719 -95.7475 121° Southeast 251 289 21,000  Level Minneapolis Center
Wed 08:31:06 PM 46.4383 -95.6664 121° Southeast 245 282 21,000  Level Minneapolis Center
Wed 08:32:08 PM 46.3967 -95.5703 122° Southeast 238 274 21,000  Level Minneapolis Center
Wed 08:33:10 PM 46.3628 -95.4886 121° Southeast 236 272 21,000  Level Minneapolis Center
Wed 08:34:12 PM 46.3308 -95.4108 121° Southeast 235 270 21,000  Level Minneapolis Center
Wed 08:35:14 PM 46.3042 -95.3461 121° Southeast 235 270 21,000  Level Minneapolis Center
Wed 08:36:16 PM 46.2628 -95.2481 121° Southeast 238 274 21,000  Level Minneapolis Center
Wed 08:37:18 PM 46.2281 -95.1672 122° Southeast 238 274 21,000  Level Minneapolis Center
Wed 08:38:20 PM 46.1919 -95.0822 122° Southeast 239 275 21,000  Level Minneapolis Center
Wed 08:39:22 PM 46.1514 -94.9869 122° Southeast 237 273 21,000  Level Minneapolis Center
Wed 08:40:24 PM 46.1169 -94.9081 122° Southeast 234 269 21,000  Level Minneapolis Center
Wed 08:41:26 PM 46.0828 -94.8281 122° Southeast 235 270 21,000  Level Minneapolis Center
Wed 08:42:28 PM 46.0489 -94.7472 121° Southeast 237 273 21,000  Level Minneapolis Center
Wed 08:43:30 PM 46.0128 -94.6642 122° Southeast 244 281 21,000  Level Minneapolis Center
Wed 08:44:32 PM 45.9706 -94.5681 122° Southeast 239 275 21,000 -629 Level Minneapolis Center
Wed 08:45:34 PM 45.9325 -94.4844 123° Southeast 247 284 19,700 -1,306 Descending Minneapolis Center
Wed 08:46:36 PM 45.8917 -94.3878 121° Southeast 272 313 18,300 -1,355 Descending Minneapolis Center
Wed 08:47:38 PM 45.8519 -94.2942 121° Southeast 277 319 16,900 -1,355 Descending Minneapolis Center
Wed 08:48:40 PM 45.8128 -94.2050 122° Southeast 269 310 15,500 -1,452 Descending Minneapolis Center
Wed 08:49:42 PM 45.7731 -94.1183 123° Southeast 264 304 13,900 -1,694 Descending Minneapolis Center
Wed 08:50:44 PM 45.7272 -94.0114 122° Southeast 264 304 12,000 -1,597 Descending Minneapolis Center
Wed 08:51:46 PM 45.6883 -93.9242 123° Southeast 258 297 10,600 -1,403 Descending Minneapolis Center
Wed 08:52:48 PM 45.6511 -93.8419 123° Southeast 249 287 9,100 -1,355 Descending Minneapolis Center
Wed 08:53:50 PM 45.6181 -93.7625 121° Southeast 233 268 7,800 -1,016 Descending Minneapolis Center
Wed 08:54:52 PM 45.5864 -93.6939 123° Southeast 211 243 7,000 -387 Descending Minneapolis Center
Wed 08:55:54 PM 45.5561 -93.6247 122° Southeast 206 237 7,000 -48 Level Minneapolis Center
Wed 08:56:56 PM 45.5203 -93.5372 120° Southeast 214 246 6,900 -387 Descending Minneapolis Center
Wed 08:57:58 PM 45.4900 -93.4575 118° Southeast 228 262 6,200 -629 Descending Minneapolis Center
Wed 08:59:00 PM 45.4578 -93.3797 121° Southeast 228 262 5,600 -677 Descending Minneapolis Center
Wed 09:00:02 PM 45.4242 -93.3058 123° Southeast 224 258 4,800 -726 Descending Minneapolis Center
Wed 09:01:04 PM 45.3881 -93.2311 125° Southeast 228 262 4,100 -387 Descending Minneapolis Center
Wed 09:02:06 PM 45.3528 -93.1619 126° Southeast 219 252 4,000 -44 Descending Minneapolis Center
Wed 09:03:20 PM 45.3139 -93.0864 126° Southeast 200 230 4,000  Level Minneapolis Center
Wed 09:04:23 PM 45.2728 -93.0136 129° Southeast 198 228 4,000  Level Minneapolis Center
Wed 09:05:25 PM 45.2128 -93.0033 173° South 213 245 4,000  Level Minneapolis Center
Wed 09:06:27 PM 45.1550 -92.9906 171° South 212 244 4,000 -290 Level Minneapolis Center
Wed 09:07:29 PM 45.0942 -92.9775 171° South 220 253 3,400 -484 Descending Minneapolis Center
Wed 09:08:31 PM 45.0322 -92.9614 170° South 225 259 3,000 -194 Descending Minneapolis Center
Wed 09:09:33 PM 44.9708 -92.9411 167° South 191 220 3,000 -194 Level Minneapolis Center
Wed 09:10:35 PM 44.9269 -92.8897 140° Southeast 205 236 2,600 -242 Descending Minneapolis Center
Wed 09:11:37 PM 44.8814 -92.8397 142° Southeast 207 238 2,500 -48 Descending Minneapolis Center
Wed 09:12:39 PM 44.8317 -92.8603 196° South 203 234 2,500  Level Minneapolis Center
Wed 09:13:41 PM 44.7928 -92.9172 226° Southwest 213 245 2,500  Level Minneapolis Center
Wed 09:14:43 PM 44.8289 -92.9619 319° Northwest 186 214 2,500 -194 Level Minneapolis Center
Wed 09:15:45 PM 44.8697 -92.9997 327° Northwest 177 204 2,100 -581 Descending Minneapolis Center
Wed 09:16:47 PM 44.9042 -93.0311 327° Northwest 126 145 1,300 -484 Descending Minneapolis Center
Wed 09:17:49 PM 44.9306 -93.0567 326° Northwest 113 130 1,100 -194 Descending Minneapolis Center

Login

Don't have an account? Register now (free) for customized features, flight alerts, and more!